Time;durP1;ratioP1;P1;durP2;ratioP2;P2;SDS_P1;SDS_P2;PMS_P1;PMS_P2;Temp;Humidity;BMP_temperature;BMP_pressure;BME280_temperature;BME280_humidity;BME280_pressure;Samples;Min_cycle;Max_cycle;Signal;HPM_P1;HPM_P2
2022/06/21 00:01:21;;;;;;;12.52;3.00;;;;;;;;;;5106397;28;20063;-83
2022/06/21 00:03:56;;;;;;;9.73;3.22;;;11.00;99.90;;;;;;5094565;28;20063;-84
2022/06/21 00:06:25;;;;;;;11.95;3.60;;;11.00;99.90;;;;;;5096675;28;20044;-84
2022/06/21 00:08:54;;;;;;;10.02;2.80;;;;;;;;;;5076770;28;20051;-84
2022/06/21 00:11:32;;;;;;;7.78;2.83;;;10.80;99.90;;;;;;5103109;28;20044;-84
2022/06/21 00:13:58;;;;;;;9.95;3.22;;;;;;;;;;5068674;28;20099;-84
2022/06/21 00:16:27;;;;;;;10.07;3.42;;;10.70;99.90;;;;;;5086282;28;20073;-84
2022/06/21 00:18:57;;;;;;;16.10;3.83;;;;;;;;;;5076008;28;20048;-84
2022/06/21 00:21:46;;;;;;;11.57;3.35;;;10.70;99.90;;;;;;5108788;28;20044;-84
2022/06/21 00:24:13;;;;;;;11.00;3.60;;;10.60;99.90;;;;;;5088343;28;20074;-84
2022/06/21 00:26:39;;;;;;;11.45;3.55;;;10.60;99.90;;;;;;5088456;28;20063;-85
2022/06/21 00:29:08;;;;;;;12.27;3.50;;;10.60;99.90;;;;;;5088167;28;20109;-84
2022/06/21 00:31:36;;;;;;;10.25;3.70;;;10.60;99.90;;;;;;5107697;28;20099;-84
2022/06/21 00:34:20;;;;;;;9.43;3.45;;;10.60;99.90;;;;;;5090653;28;20383;-85
2022/06/21 00:36:48;;;;;;;14.38;3.70;;;10.60;99.90;;;;;;5074813;28;20056;-84
2022/06/21 00:39:16;;;;;;;8.63;3.40;;;10.60;99.90;;;;;;5109953;28;20076;-84
2022/06/21 00:41:50;;;;;;;10.90;3.60;;;10.60;99.90;;;;;;5075122;28;20052;-84
2022/06/21 00:44:27;;;;;;;13.15;3.50;;;10.60;99.90;;;;;;5073280;28;20104;-84
2022/06/21 00:47:11;;;;;;;9.65;3.38;;;10.60;99.90;;;;;;5110882;28;20056;-84
2022/06/21 00:49:55;;;;;;;13.07;3.40;;;10.60;99.90;;;;;;5074366;28;20052;-84
2022/06/21 00:52:46;;;;;;;8.98;3.50;;;10.50;99.90;;;;;;5075519;28;20052;-84
2022/06/21 00:55:23;;;;;;;11.93;3.35;;;10.50;99.90;;;;;;5069032;28;20127;-84
2022/06/21 00:57:55;;;;;;;10.23;3.30;;;10.40;99.90;;;;;;5088437;28;20682;-84
2022/06/21 01:02:59;;;;;;;9.43;3.13;;;10.40;99.90;;;;;;5098902;22;20388;-61
2022/06/21 01:05:29;;;;;;;9.90;3.30;;;10.40;99.90;;;;;;5097830;28;20059;-61
2022/06/21 01:07:57;;;;;;;11.93;3.47;;;10.90;99.90;;;;;;5094765;28;20125;-61
2022/06/21 01:10:23;;;;;;;10.77;3.17;;;11.50;99.90;;;;;;5064532;28;20121;-61
2022/06/21 01:12:56;;;;;;;9.65;3.22;;;10.30;99.90;;;;;;5074167;28;20491;-61
2022/06/21 01:15:30;;;;;;;8.07;3.10;;;10.70;99.90;;;;;;5080191;28;20525;-62
2022/06/21 01:18:00;;;;;;;13.48;3.63;;;10.20;99.90;;;;;;5110990;28;20055;-61
2022/06/21 01:20:31;;;;;;;10.70;3.30;;;10.30;99.90;;;;;;5094219;28;20101;-62
2022/06/21 01:23:08;;;;;;;9.25;3.00;;;9.90;99.90;;;;;;5094374;28;20476;-61
2022/06/21 01:25:55;;;;;;;8.32;3.03;;;10.20;99.90;;;;;;5075993;28;20487;-61
2022/06/21 01:28:22;;;;;;;10.25;3.22;;;10.20;99.90;;;;;;5094068;28;20044;-61
2022/06/21 01:30:53;;;;;;;10.40;3.30;;;10.10;99.90;;;;;;5094074;28;20044;-61
2022/06/21 01:33:31;;;;;;;7.57;2.90;;;9.90;99.90;;;;;;5094229;28;20036;-62
2022/06/21 01:36:01;;;;;;;9.80;3.20;;;10.00;99.90;;;;;;5082186;28;20044;-62
2022/06/21 01:38:34;;;;;;;11.27;3.50;;;9.80;99.90;;;;;;5073167;28;20052;-62
2022/06/21 01:41:06;;;;;;;9.63;3.40;;;9.80;99.90;;;;;;5093910;28;20044;-62
2022/06/21 01:43:32;;;;;;;7.93;3.22;;;10.10;99.90;;;;;;5094120;28;20055;-62
2022/06/21 01:46:03;;;;;;;10.60;3.42;;;10.00;99.90;;;;;;5093921;28;20089;-61
2022/06/21 01:48:45;;;;;;;10.40;3.28;;;10.00;99.90;;;;;;5093847;28;20513;-62
2022/06/21 01:51:29;;;;;;;6.70;3.10;;;10.20;99.90;;;;;;5094164;28;20050;-62
2022/06/21 01:53:58;;;;;;;8.25;3.28;;;9.20;99.90;;;;;;5093812;28;20111;-62
2022/06/21 01:56:27;;;;;;;10.68;3.63;;;9.80;99.90;;;;;;5093763;28;20048;-62
2022/06/21 01:59:01;;;;;;;7.95;3.45;;;10.00;99.90;;;;;;5093637;28;20054;-62
2022/06/21 02:01:48;;;;;;;10.25;3.95;;;9.90;99.90;;;;;;5093509;28;20051;-63
2022/06/21 02:04:20;;;;;;;10.70;3.83;;;9.80;99.90;;;;;;5093770;28;20105;-63
2022/06/21 02:06:48;;;;;;;11.05;3.70;;;8.70;99.90;;;;;;5093598;28;20044;-63
2022/06/21 02:09:42;;;;;;;6.60;3.78;;;9.80;99.90;;;;;;5089055;28;20063;-63
2022/06/21 02:12:12;;;;;;;9.13;4.07;;;9.90;99.90;;;;;;5068896;28;20482;-62
2022/06/21 02:14:51;;;;;;;8.25;3.40;;;9.50;99.90;;;;;;5072752;28;20056;-63
2022/06/21 02:17:30;;;;;;;7.00;3.88;;;9.60;99.90;;;;;;5072027;28;20056;-62
2022/06/21 02:20:19;;;;;;;8.32;4.00;;;9.40;99.90;;;;;;5073301;28;20040;-62
2022/06/21 02:22:46;;;;;;;9.70;3.90;;;9.30;99.90;;;;;;5073142;28;20656;-62
2022/06/21 02:25:20;;;;;;;7.32;4.00;;;9.50;99.90;;;;;;5073323;28;20036;-62
2022/06/21 02:27:48;;;;;;;6.57;3.83;;;8.80;99.90;;;;;;5073239;28;20040;-62
2022/06/21 02:30:20;;;;;;;7.28;3.85;;;9.30;99.90;;;;;;5073147;28;20106;-62
2022/06/21 02:32:46;;;;;;;10.45;4.32;;;9.40;99.90;;;;;;5072898;28;20049;-62
2022/06/21 02:35:17;;;;;;;17.40;4.20;;;9.60;99.90;;;;;;5055002;28;20495;-62
2022/06/21 02:37:45;;;;;;;9.48;3.78;;;9.60;99.90;;;;;;5073240;28;20044;-62
2022/06/21 02:40:41;;;;;;;6.38;3.60;;;9.40;99.90;;;;;;5073183;28;20068;-62
2022/06/21 02:43:28;;;;;;;6.38;3.80;;;9.30;99.90;;;;;;5073503;28;20098;-62
2022/06/21 02:46:03;;;;;;;7.13;3.85;;;9.40;99.90;;;;;;5073293;28;20049;-62
2022/06/21 02:48:34;;;;;;;8.10;4.07;;;9.20;99.90;;;;;;5114726;28;20118;-62
2022/06/21 02:51:05;;;;;;;8.45;4.18;;;9.00;99.90;;;;;;5082730;28;20047;-63
2022/06/21 02:53:37;;;;;;;7.43;4.20;;;8.60;99.90;;;;;;5099779;28;20056;-62
2022/06/21 02:56:19;;;;;;;7.82;4.07;;;8.90;99.90;;;;;;5117478;28;20493;-62
2022/06/21 02:58:51;;;;;;;9.20;3.90;;;9.30;99.90;;;;;;5117714;28;20048;-62
2022/06/21 03:01:30;;;;;;;6.57;3.88;;;9.00;99.90;;;;;;5117498;28;20398;-62
2022/06/21 03:03:57;;;;;;;11.48;4.32;;;8.90;99.90;;;;;;5099255;28;20100;-62
2022/06/21 03:06:24;;;;;;;7.72;4.18;;;8.80;99.90;;;;;;5117180;28;20126;-62
2022/06/21 03:08:59;;;;;;;7.72;4.03;;;8.90;99.90;;;;;;5117201;28;20458;-62
2022/06/21 03:11:30;;;;;;;5.88;3.85;;;8.30;99.90;;;;;;5117391;28;20120;-62
2022/06/21 03:14:00;;;;;;;6.30;3.85;;;8.40;99.90;;;;;;5098797;28;20127;-62
2022/06/21 03:16:26;;;;;;;8.27;3.88;;;;;;;;;;5117133;28;20048;-62
2022/06/21 03:18:58;;;;;;;6.88;3.85;;;9.10;99.90;;;;;;5116828;28;20054;-62
2022/06/21 03:21:32;;;;;;;6.50;3.83;;;9.20;99.90;;;;;;5098636;28;20501;-62
2022/06/21 03:24:01;;;;;;;6.45;3.78;;;9.10;99.90;;;;;;5117065;28;20043;-62
2022/06/21 03:26:31;;;;;;;7.70;4.20;;;9.00;99.90;;;;;;5098845;28;20072;-62
2022/06/21 03:28:57;;;;;;;8.18;4.20;;;8.20;99.90;;;;;;5116212;28;20062;-62
2022/06/21 03:31:39;;;;;;;10.40;5.13;;;9.10;99.90;;;;;;5116675;28;20044;-62
2022/06/21 03:34:08;;;;;;;8.95;4.63;;;9.40;99.90;;;;;;5116774;28;20486;-62
2022/06/21 03:36:35;;;;;;;9.55;5.15;;;9.40;99.90;;;;;;5116650;28;20055;-62
2022/06/21 03:39:16;;;;;;;9.95;5.68;;;9.20;99.90;;;;;;5117009;28;20109;-62
2022/06/21 03:41:45;;;;;;;9.65;5.90;;;8.70;99.90;;;;;;5116492;28;20398;-63
2022/06/21 03:44:26;;;;;;;8.02;5.38;;;9.50;99.90;;;;;;5116561;28;20126;-62
2022/06/21 03:47:09;;;;;;;11.25;5.68;;;9.10;99.90;;;;;;5116599;28;20449;-62
2022/06/21 03:50:08;;;;;;;7.57;5.10;;;9.20;99.90;;;;;;5116625;28;20056;-61
2022/06/21 03:52:58;;;;;;;6.63;4.82;;;9.20;99.90;;;;;;5098164;28;20188;-62
2022/06/21 03:55:25;;;;;;;7.43;4.63;;;;;;;;;;5116406;28;20055;-62
2022/06/21 03:58:10;;;;;;;6.78;4.20;;;9.50;99.90;;;;;;5116056;28;20070;-62
2022/06/21 04:00:47;;;;;;;7.13;4.40;;;9.90;99.90;;;;;;5116033;28;20513;-62
2022/06/21 04:03:22;;;;;;;6.10;4.45;;;9.90;99.90;;;;;;5115636;28;20052;-62
2022/06/21 04:05:58;;;;;;;7.22;4.53;;;10.90;99.90;;;;;;5116204;28;20042;-62
2022/06/21 04:08:32;;;;;;;6.63;3.88;;;11.20;99.90;;;;;;5097733;28;20048;-62
2022/06/21 04:11:19;;;;;;;5.05;3.35;;;12.10;99.90;;;;;;5115916;28;20047;-62
2022/06/21 04:14:17;;;;;;;5.80;3.60;;;11.60;99.90;;;;;;5116188;28;20052;-62
2022/06/21 04:17:24;;;;;;;6.13;3.20;;;11.60;99.90;;;;;;5097834;28;20051;-62
2022/06/21 04:20:27;;;;;;;5.72;3.05;;;12.50;99.90;;;;;;5013254;28;20061;-62
2022/06/21 04:23:12;;;;;;;5.55;3.00;;;12.80;99.90;;;;;;5013336;28;20085;-62
2022/06/21 04:25:47;;;;;;;8.15;3.25;;;13.00;99.90;;;;;;5013276;28;20046;-62
2022/06/21 04:28:12;;;;;;;4.95;3.03;;;13.00;99.90;;;;;;5013275;28;20050;-63
2022/06/21 04:31:12;;;;;;;11.25;3.67;;;13.20;99.90;;;;;;5013276;28;20046;-63
2022/06/21 04:33:45;;;;;;;5.63;3.28;;;13.40;99.90;;;;;;5000004;28;20041;-63
2022/06/21 04:36:24;;;;;;;4.85;2.97;;;14.60;99.90;;;;;;4996847;28;20068;-63
2022/06/21 04:39:02;;;;;;;6.13;2.60;;;15.90;99.90;;;;;;5013101;28;20073;-63
2022/06/21 04:41:49;;;;;;;6.20;2.88;;;17.10;99.90;;;;;;5012923;28;20100;-63
2022/06/21 04:44:28;;;;;;;5.47;2.65;;;18.30;99.90;;;;;;5012803;28;20253;-64
2022/06/21 04:47:14;;;;;;;5.00;2.10;;;19.10;99.90;;;;;;4996611;28;20056;-64
2022/06/21 04:49:46;;;;;;;;;;;18.90;99.90;;;;;;5013425;28;20128;-63
2022/06/21 04:52:44;;;;;;;3.90;1.98;;;20.20;99.90;;;;;;5012527;28;20311;-64
2022/06/21 04:55:16;;;;;;;4.63;2.30;;;21.00;99.90;;;;;;5091120;28;20050;-64
2022/06/21 04:57:45;;;;;;;3.88;2.35;;;22.40;99.90;;;;;;5083794;28;20143;-64
2022/06/21 05:00:20;;;;;;;4.38;2.10;;;21.60;97.30;;;;;;5093558;28;20115;-64
2022/06/21 05:02:52;;;;;;;5.55;2.30;;;22.10;99.20;;;;;;5084162;28;20084;-64
2022/06/21 05:05:25;;;;;;;6.93;2.33;;;22.60;97.50;;;;;;5088153;28;20044;-64
2022/06/21 05:07:54;;;;;;;6.13;2.30;;;23.10;93.60;;;;;;5080689;28;20048;-64
2022/06/21 05:10:24;;;;;;;7.28;2.50;;;23.20;85.60;;;;;;5080304;28;20399;-64
2022/06/21 05:12:53;;;;;;;5.78;2.35;;;24.50;89.80;;;;;;5083384;28;20128;-64
2022/06/21 05:15:39;;;;;;;5.80;2.30;;;24.20;86.60;;;;;;5073209;28;20055;-64
2022/06/21 05:18:15;;;;;;;5.72;2.58;;;24.40;75.50;;;;;;5072520;28;20048;-64
2022/06/21 05:20:58;;;;;;;8.60;2.40;;;25.60;80.40;;;;;;5055508;28;20048;-64
2022/06/21 05:23:25;;;;;;;4.72;2.33;;;26.00;80.00;;;;;;5082041;28;20525;-64
2022/06/21 05:25:52;;;;;;;4.40;2.60;;;26.10;68.00;;;;;;5092872;28;20045;-65
2022/06/21 05:28:42;;;;;;;5.28;2.35;;;26.70;74.60;;;;;;5093118;28;20048;-65
2022/06/21 05:31:17;;;;;;;7.82;2.38;;;26.90;72.00;;;;;;5093434;28;20048;-64
2022/06/21 05:33:50;;;;;;;7.22;2.60;;;26.90;72.90;;;;;;5093954;28;20478;-64
2022/06/21 05:36:40;;;;;;;8.40;2.70;;;27.10;61.80;;;;;;5093840;28;20047;-64
2022/06/21 05:39:22;;;;;;;10.43;2.70;;;25.80;70.60;;;;;;5093922;28;20399;-64
2022/06/21 05:41:51;;;;;;;7.38;2.60;;;25.30;76.50;;;;;;5093886;28;20044;-64
2022/06/21 05:44:41;;;;;;;9.13;2.70;;;23.80;78.80;;;;;;5093798;28;20047;-64
2022/06/21 05:47:18;;;;;;;11.15;2.70;;;23.00;73.00;;;;;;5093813;28;20044;-64
2022/06/21 05:49:44;;;;;;;8.93;2.80;;;21.80;88.00;;;;;;5093702;28;20051;-64
2022/06/21 05:52:24;;;;;;;10.45;2.78;;;20.70;90.80;;;;;;5093069;28;20047;-64
2022/06/21 05:55:02;;;;;;;11.85;3.40;;;21.50;82.00;;;;;;5075598;28;20403;-64
2022/06/21 05:57:38;;;;;;;8.10;2.70;;;20.00;96.80;;;;;;5093762;28;20058;-63
2022/06/21 06:00:06;;;;;;;10.15;3.22;;;20.00;99.90;;;;;;5075391;28;20059;-63
2022/06/21 06:02:42;;;;;;;11.32;3.13;;;19.40;99.90;;;;;;5093288;28;20052;-64
2022/06/21 06:05:25;;;;;;;8.80;3.20;;;19.10;99.90;;;;;;5093983;28;20180;-63
2022/06/21 06:08:01;;;;;;;8.23;3.10;;;19.30;99.90;;;;;;5093386;28;20079;-64
2022/06/21 06:10:29;;;;;;;8.43;3.00;;;18.80;99.90;;;;;;5093533;28;20043;-63
2022/06/21 06:13:05;;;;;;;11.02;3.00;;;18.80;99.90;;;;;;5093280;28;20410;-63
2022/06/21 06:15:36;;;;;;;8.80;2.90;;;18.90;99.90;;;;;;5093288;28;20543;-63
2022/06/21 06:18:17;;;;;;;8.73;3.08;;;19.50;99.90;;;;;;5092940;28;20459;-63
2022/06/21 06:20:45;;;;;;;9.88;2.47;;;20.80;99.90;;;;;;5075310;28;20048;-63
2022/06/21 06:23:32;;;;;;;8.25;2.35;;;22.20;98.00;;;;;;5093136;28;20048;-63
2022/06/21 06:26:07;;;;;;;6.38;2.72;;;23.70;93.50;;;;;;5075096;28;20044;-63
2022/06/21 06:28:44;;;;;;;11.85;2.45;;;24.00;90.30;;;;;;5093030;28;20491;-63
2022/06/21 06:31:18;;;;;;;7.20;2.30;;;25.10;81.10;;;;;;5093314;28;20044;-63
2022/06/21 06:33:49;;;;;;;5.43;2.10;;;25.70;76.60;;;;;;5093252;28;20066;-64
2022/06/21 06:36:17;;;;;;;7.82;2.33;;;26.40;70.90;;;;;;5093267;28;20044;-63
2022/06/21 06:38:44;;;;;;;6.30;2.05;;;26.90;71.20;;;;;;5093065;28;20114;-64
2022/06/21 06:41:26;;;;;;;8.32;2.50;;;26.00;69.30;;;;;;5093214;28;20042;-64
2022/06/21 06:43:59;;;;;;;6.55;2.00;;;25.10;70.10;;;;;;5093208;28;20052;-61
2022/06/21 06:46:29;;;;;;;7.85;2.10;;;25.50;61.90;;;;;;5093168;28;20052;-61
2022/06/21 06:49:06;;;;;;;6.80;2.05;;;23.70;72.90;;;;;;5093102;28;20052;-60
2022/06/21 06:51:51;;;;;;;6.80;1.92;;;22.80;74.60;;;;;;5093280;28;20059;-60
2022/06/21 06:54:28;;;;;;;7.50;2.03;;;22.80;65.40;;;;;;5093261;28;20044;-61
2022/06/21 06:57:04;;;;;;;7.28;2.30;;;21.90;79.70;;;;;;5092816;28;20052;-61
2022/06/21 06:59:30;;;;;;;6.80;1.98;;;22.10;80.80;;;;;;5092883;28;20376;-60
2022/06/21 07:02:02;;;;;;;6.20;2.03;;;22.70;80.30;;;;;;5092768;28;20181;-61
2022/06/21 07:04:37;;;;;;;10.57;2.00;;;23.30;78.40;;;;;;5093010;28;20054;-61
2022/06/21 07:07:06;;;;;;;;;;;23.30;69.60;;;;;;5075137;28;20450;-60
2022/06/21 07:09:48;;;;;;;12.02;2.28;;;24.70;75.70;;;;;;5074610;28;19916;-61
2022/06/21 07:12:16;;;;;;;9.45;2.53;;;24.90;73.90;;;;;;5092708;28;20079;-64
2022/06/21 07:14:44;;;;;;;5.82;2.15;;;25.00;72.80;;;;;;5093042;28;20048;-63
2022/06/21 07:17:16;;;;;;;7.47;1.88;;;24.50;75.90;;;;;;5092941;28;20100;-64
2022/06/21 07:19:42;;;;;;;6.38;2.00;;;25.30;72.10;;;;;;5092792;28;20048;-63
2022/06/21 07:22:20;;;;;;;5.45;1.65;;;25.40;71.80;;;;;;5092706;28;20510;-63
2022/06/21 07:25:11;;;;;;;9.55;2.10;;;24.90;71.90;;;;;;5092681;28;20044;-61
2022/06/21 07:27:40;;;;;;;7.10;2.25;;;24.50;72.90;;;;;;5092798;28;20119;-60
2022/06/21 07:30:10;;;;;;;9.93;2.60;;;23.70;74.00;;;;;;5092587;28;20113;-64
2022/06/21 07:32:58;;;;;;;8.45;2.28;;;23.00;75.90;;;;;;5093390;28;20044;-63
2022/06/21 07:35:26;;;;;;;9.63;2.30;;;22.60;79.00;;;;;;5096502;28;20041;-63
2022/06/21 07:37:57;;;;;;;6.25;1.98;;;23.10;70.40;;;;;;5096146;28;20048;-64
2022/06/21 07:40:35;;;;;;;9.02;2.40;;;23.20;77.60;;;;;;5096427;28;20124;-64
2022/06/21 07:43:35;;;;;;;9.68;2.40;;;24.40;73.90;;;;;;5061560;28;20084;-63
2022/06/21 07:46:03;;;;;;;8.52;2.15;;;24.50;75.30;;;;;;5080978;28;20402;-61
2022/06/21 07:48:48;;;;;;;6.05;1.98;;;25.10;75.00;;;;;;5096148;28;20396;-61
2022/06/21 07:51:28;;;;;;;5.80;2.17;;;24.50;73.30;;;;;;5077912;28;20206;-61
2022/06/21 07:54:27;;;;;;;8.38;2.80;;;25.00;74.10;;;;;;5095931;28;20048;-61
2022/06/21 07:56:57;;;;;;;6.25;2.25;;;24.90;73.10;;;;;;5095357;28;20052;-61
2022/06/21 07:59:45;;;;;;;9.13;2.42;;;24.50;72.70;;;;;;5095927;28;20080;-61
2022/06/21 08:08:20;;;;;;;8.02;2.20;;;24.70;74.40;;;;;;5053211;28;20080;-59
2022/06/21 08:11:06;;;;;;;8.27;2.20;;;23.90;71.30;;;;;;5053380;28;20053;-60
2022/06/21 08:13:32;;;;;;;6.65;2.00;;;23.80;72.90;;;;;;5045775;28;20048;-60
2022/06/21 08:16:12;;;;;;;6.50;2.05;;;23.60;72.20;;;;;;5053281;28;20408;-60
2022/06/21 08:19:11;;;;;;;6.13;2.10;;;24.10;72.50;;;;;;5052930;28;20092;-61
2022/06/21 08:21:47;;;;;;;5.65;2.28;;;24.10;73.50;;;;;;5052455;28;20064;-62
2022/06/21 08:24:31;;;;;;;5.30;1.90;;;24.20;76.20;;;;;;5053144;28;20122;-61
2022/06/21 08:27:01;;;;;;;4.78;1.80;;;24.40;70.60;;;;;;5035622;28;20049;-62
2022/06/21 08:29:35;;;;;;;3.95;1.75;;;24.50;71.20;;;;;;5052478;28;20158;-62
2022/06/21 08:32:07;;;;;;;6.88;2.20;;;24.40;72.70;;;;;;5052889;28;20128;-62
2022/06/21 08:34:46;;;;;;;6.93;2.28;;;24.60;71.10;;;;;;5052988;28;20084;-61
2022/06/21 08:37:22;;;;;;;4.05;1.80;;;24.30;72.60;;;;;;5053153;28;20405;-62
2022/06/21 08:39:52;;;;;;;7.55;1.80;;;24.40;71.30;;;;;;5052644;28;20088;-62
2022/06/21 08:42:44;;;;;;;6.85;1.90;;;23.70;70.90;;;;;;5036152;28;20511;-62
2022/06/21 08:48:27;;;;;;;7.93;1.98;;;24.40;72.60;;;;;;5094802;28;20458;-63
2022/06/21 08:51:15;;;;;;;5.97;1.88;;;24.20;71.10;;;;;;5095059;28;20052;-63
2022/06/21 08:53:52;;;;;;;3.35;1.67;;;23.80;71.40;;;;;;5094944;28;20457;-64
2022/06/21 08:56:55;;;;;;;5.68;1.73;;;23.50;71.20;;;;;;5094702;28;20388;-64
2022/06/21 08:59:33;;;;;;;5.13;2.00;;;23.10;71.90;;;;;;5094729;28;20055;-63
2022/06/21 09:02:38;;;;;;;4.90;1.90;;;23.70;63.80;;;;;;5094329;28;20127;-63
2022/06/21 09:05:38;;;;;;;4.38;1.80;;;24.00;62.30;;;;;;5093837;28;20441;-63
2022/06/21 09:08:41;;;;;;;11.48;2.08;;;23.70;71.20;;;;;;5094513;28;20112;-64
2022/06/21 09:11:20;;;;;;;6.30;1.70;;;24.20;70.20;;;;;;5074813;28;20104;-63
2022/06/21 09:14:13;;;;;;;5.65;2.00;;;24.00;69.20;;;;;;5094610;28;20056;-64
2022/06/21 09:17:15;;;;;;;5.18;1.67;;;24.10;60.90;;;;;;5094364;28;20048;-64
2022/06/21 09:19:56;;;;;;;6.90;1.90;;;24.30;70.70;;;;;;5076031;28;20411;-64
2022/06/21 09:22:32;;;;;;;6.03;1.95;;;23.80;70.30;;;;;;5094483;28;20102;-64
2022/06/21 09:25:08;;;;;;;5.15;2.03;;;24.20;71.30;;;;;;5094277;28;20058;-66
2022/06/21 09:27:46;;;;;;;6.65;2.13;;;24.30;62.90;;;;;;5094163;28;20051;-66
2022/06/21 09:30:18;;;;;;;8.05;2.40;;;24.10;63.30;;;;;;5094249;28;20048;-65
2022/06/21 09:33:21;;;;;;;10.07;2.40;;;24.10;64.00;;;;;;5094293;28;20044;-65
2022/06/21 09:36:04;;;;;;;5.75;1.90;;;23.90;70.60;;;;;;5011904;28;20050;-65
2022/06/21 09:38:41;;;;;;;5.60;2.33;;;23.30;70.70;;;;;;5011947;28;20142;-64
2022/06/21 09:41:15;;;;;;;7.03;2.03;;;24.10;63.90;;;;;;5011940;28;20393;-64
2022/06/21 09:44:10;;;;;;;9.60;2.30;;;23.60;71.20;;;;;;5012488;28;20056;-63
2022/06/21 09:47:04;;;;;;;4.63;1.80;;;22.80;71.60;;;;;;5012012;28;20104;-62
2022/06/21 09:49:48;;;;;;;4.35;1.98;;;23.00;72.80;;;;;;5005267;28;20113;-62
2022/06/21 09:52:26;;;;;;;8.48;2.10;;;23.20;66.50;;;;;;4995421;28;20081;-62
2022/06/21 09:55:03;;;;;;;5.53;2.00;;;23.40;66.50;;;;;;5011617;28;20533;-62
2022/06/21 09:57:47;;;;;;;6.45;2.03;;;23.20;72.60;;;;;;5011733;28;20054;-62
2022/06/21 10:00:38;;;;;;;4.65;1.83;;;23.80;64.80;;;;;;5011736;28;20053;-62
2022/06/21 10:03:19;;;;;;;4.32;1.80;;;23.50;65.30;;;;;;4991957;28;20174;-62
2022/06/21 10:05:56;;;;;;;5.70;1.67;;;24.90;74.30;;;;;;4991960;28;20513;-62
2022/06/21 10:08:40;;;;;;;4.57;1.80;;;23.30;68.70;;;;;;4992044;28;20065;-62
2022/06/21 10:11:20;;;;;;;6.75;2.08;;;23.60;62.00;;;;;;5023141;28;20056;-62
2022/06/21 10:14:19;;;;;;;8.27;2.10;;;23.70;72.50;;;;;;5073158;28;20118;-62
2022/06/21 10:16:51;;;;;;;10.10;2.10;;;23.80;69.60;;;;;;5073184;28;20048;-63
2022/06/21 10:19:25;;;;;;;5.13;2.15;;;23.30;68.90;;;;;;5073183;28;20499;-63
2022/06/21 10:22:16;;;;;;;7.10;1.98;;;23.70;62.00;;;;;;5073057;28;20045;-62
2022/06/21 10:24:54;;;;;;;7.38;2.30;;;23.50;68.50;;;;;;5055454;28;20047;-62
2022/06/21 10:27:36;;;;;;;4.78;2.00;;;23.30;67.40;;;;;;5073348;28;20116;-63
2022/06/21 10:30:21;;;;;;;9.23;2.10;;;19.50;64.30;;;;;;5072802;28;20051;-62
2022/06/21 10:33:27;;;;;;;6.17;2.00;;;22.30;70.60;;;;;;5073167;28;20052;-63
2022/06/21 10:36:01;;;;;;;;;;;23.50;62.00;;;;;;5073353;28;20514;-63
2022/06/21 10:38:36;;;;;;;6.00;2.00;;;23.60;60.60;;;;;;5072744;28;20371;-62
2022/06/21 10:41:20;;;;;;;5.88;2.25;;;23.60;62.60;;;;;;5073006;28;20048;-63
2022/06/21 10:43:54;;;;;;;5.47;2.22;;;23.80;61.80;;;;;;5072806;28;20491;-63
2022/06/21 10:46:29;;;;;;;6.90;1.90;;;24.00;68.40;;;;;;5070971;28;20060;-64
2022/06/21 10:49:04;;;;;;;6.57;2.17;;;23.90;61.50;;;;;;5052418;28;20057;-63
2022/06/21 10:51:49;;;;;;;;;;;24.10;59.60;;;;;;5064687;28;20412;-63
2022/06/21 10:54:54;;;;;;;10.98;2.40;;;24.10;59.30;;;;;;5063942;28;19944;-62
2022/06/21 10:58:01;;;;;;;2.88;1.70;;;24.90;67.50;;;;;;5064274;28;20052;-63
2022/06/21 11:01:17;;;;;;;6.80;1.90;;;24.20;59.10;;;;;;5063273;28;20524;-63
2022/06/21 11:04:14;;;;;;;5.10;1.80;;;24.20;59.50;;;;;;5058865;28;20048;-63
2022/06/21 11:06:40;;;;;;;4.97;2.63;;;23.30;68.20;;;;;;5071532;28;20052;-63
2022/06/21 11:09:24;;;;;;;4.30;2.10;;;23.80;60.10;;;;;;5074825;28;20052;-63
2022/06/21 11:11:56;;;;;;;5.05;2.22;;;23.90;67.60;;;;;;5075279;28;20086;-63
2022/06/21 11:14:56;;;;;;;7.93;2.25;;;23.90;67.50;;;;;;5075913;28;20087;-63
2022/06/21 11:17:37;;;;;;;6.75;2.13;;;23.80;65.90;;;;;;5066787;28;20063;-63
2022/06/21 11:20:29;;;;;;;3.95;1.77;;;24.00;59.90;;;;;;5075273;28;20109;-63
2022/06/21 11:23:03;;;;;;;3.72;2.03;;;24.00;68.00;;;;;;5075245;28;20507;-63
2022/06/21 11:25:56;;;;;;;4.32;2.15;;;24.10;60.30;;;;;;5075823;28;20455;-63
2022/06/21 11:28:36;;;;;;;7.22;2.50;;;24.30;60.30;;;;;;5075104;28;20052;-63
2022/06/21 11:31:24;;;;;;;3.85;1.90;;;24.20;65.60;;;;;;5092857;28;20044;-64
2022/06/21 11:34:15;;;;;;;7.70;2.10;;;24.30;67.20;;;;;;5096832;28;20052;-72
2022/06/21 11:36:43;;;;;;;18.13;2.47;;;24.40;59.70;;;;;;5082328;28;20056;-73
2022/06/21 11:39:43;;;;;;;6.32;2.30;;;24.60;59.30;;;;;;5072307;28;20567;-72
2022/06/21 11:42:16;;;;;;;6.28;2.22;;;24.60;65.20;;;;;;5088637;28;20056;-73
2022/06/21 11:45:07;;;;;;;4.45;2.00;;;24.50;58.90;;;;;;5091488;28;20399;-71
2022/06/21 11:48:21;;;;;;;10.35;2.15;;;24.60;58.80;;;;;;5090992;28;20044;-72
2022/06/21 11:51:09;;;;;;;5.22;2.00;;;24.70;57.80;;;;;;5067512;28;20052;-74
2022/06/21 11:53:59;;;;;;;5.18;2.08;;;25.20;67.20;;;;;;5091172;28;20054;-73
2022/06/21 11:56:56;;;;;;;6.45;2.03;;;25.10;58.00;;;;;;5090914;28;20043;-72
2022/06/21 11:59:41;;;;;;;4.88;1.80;;;25.00;67.00;;;;;;5091216;28;20119;-70
2022/06/21 12:02:12;;;;;;;8.25;2.47;;;25.10;57.50;;;;;;5090906;28;20051;-69
2022/06/21 12:04:59;;;;;;;4.80;1.77;;;25.30;66.20;;;;;;5091560;28;20052;-71
2022/06/21 12:07:51;;;;;;;4.53;1.80;;;25.30;64.50;;;;;;5090457;28;20052;-73
2022/06/21 12:10:27;;;;;;;4.13;2.10;;;25.30;56.80;;;;;;5072682;28;20051;-72
2022/06/21 12:13:21;;;;;;;5.47;2.00;;;25.40;56.30;;;;;;5091187;28;20384;-72
2022/06/21 12:15:57;;;;;;;7.75;1.60;;;25.50;56.40;;;;;;5090254;28;20048;-72
2022/06/21 12:18:28;;;;;;;2.67;1.63;;;25.70;56.90;;;;;;5090589;28;20059;-71
2022/06/21 12:21:15;;;;;;;7.13;1.88;;;25.70;56.90;;;;;;5093111;28;20047;-70
2022/06/21 12:23:50;;;;;;;5.70;1.77;;;25.70;56.50;;;;;;5092388;28;20048;-74
2022/06/21 12:26:20;;;;;;;5.72;1.75;;;25.70;55.40;;;;;;5110593;28;20082;-65
2022/06/21 12:28:46;;;;;;;4.68;1.45;;;25.60;55.10;;;;;;5111138;28;20054;-65
2022/06/21 12:31:39;;;;;;;2.45;1.48;;;24.50;61.20;;;;;;5110505;28;20048;-65
2022/06/21 12:34:18;;;;;;;3.25;1.45;;;25.20;59.20;;;;;;5105875;28;20487;-66
2022/06/21 12:36:51;;;;;;;4.10;1.50;;;25.00;59.40;;;;;;5071980;28;20106;-65
2022/06/21 12:39:29;;;;;;;4.13;1.50;;;25.20;53.70;;;;;;5090033;28;20150;-65
2022/06/21 12:42:03;;;;;;;5.15;1.38;;;24.70;60.50;;;;;;5089865;28;20055;-66
2022/06/21 12:44:49;;;;;;;5.60;1.55;;;25.10;61.90;;;;;;5090445;28;20049;-65
2022/06/21 12:47:21;;;;;;;2.22;1.33;;;25.20;53.30;;;;;;5089693;28;20411;-66
2022/06/21 12:50:24;;;;;;;3.17;1.52;;;25.20;55.10;;;;;;5089599;28;20101;-66
2022/06/21 12:53:11;;;;;;;12.10;2.25;;;25.40;54.90;;;;;;5072048;28;20040;-66
2022/06/21 12:55:43;;;;;;;4.97;1.30;;;25.60;54.40;;;;;;5071274;28;20494;-64
2022/06/21 12:58:56;;;;;;;3.53;1.33;;;25.70;53.70;;;;;;5089479;28;20052;-65
2022/06/21 13:01:30;;;;;;;3.67;1.60;;;25.90;60.50;;;;;;5088579;28;20056;-71
2022/06/21 13:04:20;;;;;;;4.77;1.60;;;25.80;53.30;;;;;;5089608;28;20088;-71
2022/06/21 13:07:33;;;;;;;4.82;1.70;;;25.80;53.40;;;;;;5089271;28;20469;-71
2022/06/21 13:10:17;;;;;;;5.30;1.65;;;26.00;52.50;;;;;;5068635;28;20040;-66
2022/06/21 13:12:55;;;;;;;3.60;1.42;;;26.10;52.10;;;;;;5089575;28;20055;-65
2022/06/21 13:15:58;;;;;;;6.18;2.10;;;26.20;52.50;;;;;;5071518;28;20071;-65
2022/06/21 13:18:50;;;;;;;7.32;1.80;;;26.10;51.90;;;;;;5089703;28;20048;-73
2022/06/21 13:21:31;;;;;;;8.13;1.80;;;26.10;51.90;;;;;;5070978;28;20044;-71
2022/06/21 13:24:21;;;;;;;6.38;2.10;;;25.90;59.50;;;;;;5088997;28;20032;-71
2022/06/21 13:27:24;;;;;;;3.55;1.60;;;26.00;52.40;;;;;;5089729;28;20054;-70
2022/06/21 13:30:10;;;;;;;6.78;2.00;;;25.80;52.40;;;;;;5089193;28;20146;-72
2022/06/21 13:32:54;;;;;;;5.18;1.70;;;25.60;52.40;;;;;;5089403;28;20051;-71
2022/06/21 13:35:58;;;;;;;2.92;1.58;;;25.40;58.50;;;;;;5088738;28;20044;-70
2022/06/21 13:38:24;;;;;;;6.28;1.60;;;25.50;52.60;;;;;;5088971;28;20044;-71
2022/06/21 13:40:58;;;;;;;3.67;1.67;;;25.40;53.30;;;;;;5094185;28;20040;-71
2022/06/21 13:43:27;;;;;;;4.22;1.70;;;25.50;53.60;;;;;;5075928;28;20044;-71
2022/06/21 13:46:14;;;;;;;5.03;1.58;;;25.60;53.10;;;;;;5092165;28;20044;-70
2022/06/21 13:48:43;;;;;;;4.10;1.73;;;25.80;59.20;;;;;;5093772;28;20125;-71
2022/06/21 13:51:15;;;;;;;4.05;1.63;;;25.70;52.70;;;;;;5093480;28;20083;-70
2022/06/21 13:54:03;;;;;;;13.50;1.92;;;25.80;52.20;;;;;;5093728;28;20052;-70
2022/06/21 13:56:44;;;;;;;4.15;1.70;;;25.90;51.90;;;;;;5093649;28;20052;-70
2022/06/21 13:59:26;;;;;;;5.63;1.75;;;25.90;58.40;;;;;;5093794;28;20052;-70
2022/06/21 14:02:04;;;;;;;4.80;1.90;;;25.80;52.10;;;;;;5093589;28;20063;-69
2022/06/21 14:04:57;;;;;;;5.95;1.90;;;25.70;51.00;;;;;;5093621;28;20048;-70